Time;durP1;ratioP1;P1;durP2;ratioP2;P2;SDS_P1;SDS_P2;PMS_P1;PMS_P2;Temp;Humidity;BMP_temperature;BMP_pressure;BME280_temperature;BME280_humidity;BME280_pressure;Samples;Min_cycle;Max_cycle;Signal;HPM_P1;HPM_P2
2021/08/04 00:01:51;;;;;;;1.50;1.40;;;17.20;99.90;;;;;;5051186;28;20235;-71
2021/08/04 00:04:18;;;;;;;1.65;1.55;;;17.20;99.90;;;;;;5051458;28;20216;-70
2021/08/04 00:06:45;;;;;;;1.60;1.50;;;17.20;99.90;;;;;;5051381;28;20296;-70
2021/08/04 00:09:12;;;;;;;1.60;1.50;;;17.10;99.90;;;;;;5048934;28;20215;-71
2021/08/04 00:11:39;;;;;;;1.63;1.53;;;17.10;99.90;;;;;;5051989;28;20200;-71
2021/08/04 00:14:08;;;;;;;1.47;1.37;;;17.10;99.90;;;;;;5051049;28;20214;-71
2021/08/04 00:16:35;;;;;;;1.47;1.37;;;17.10;99.90;;;;;;5049803;28;20245;-71
2021/08/04 00:19:03;;;;;;;1.97;1.53;;;17.10;99.90;;;;;;5033321;28;20238;-71
2021/08/04 00:21:30;;;;;;;1.20;1.20;;;17.10;99.90;;;;;;5045201;28;20729;-72
2021/08/04 00:23:57;;;;;;;1.10;1.10;;;17.00;99.90;;;;;;5035829;28;20195;-71
2021/08/04 00:26:24;;;;;;;1.00;1.00;;;17.00;99.90;;;;;;5049454;28;20292;-71
2021/08/04 00:28:51;;;;;;;1.10;1.10;;;17.00;99.90;;;;;;5052124;28;20203;-71
2021/08/04 00:31:20;;;;;;;1.20;1.20;;;17.00;99.90;;;;;;5049899;28;20223;-71
2021/08/04 00:33:46;;;;;;;0.97;0.97;;;17.00;99.90;;;;;;5049926;28;20195;-71
2021/08/04 00:36:13;;;;;;;1.20;1.20;;;17.00;99.90;;;;;;5049109;28;20772;-72
2021/08/04 00:38:40;;;;;;;1.30;1.20;;;17.00;99.90;;;;;;5047761;28;20206;-71
2021/08/04 00:41:07;;;;;;;1.40;1.30;;;16.90;99.90;;;;;;5050383;28;20663;-71
2021/08/04 00:43:34;;;;;;;1.33;1.23;;;16.90;99.90;;;;;;5049137;28;20199;-71
2021/08/04 00:46:01;;;;;;;1.23;1.23;;;16.90;99.90;;;;;;5049472;28;20526;-71
2021/08/04 00:48:30;;;;;;;1.00;1.00;;;16.90;99.90;;;;;;5048826;28;20694;-70
2021/08/04 00:50:57;;;;;;;1.13;1.07;;;16.90;99.90;;;;;;5050841;28;20722;-71
2021/08/04 00:53:25;;;;;;;2.30;1.40;;;16.90;99.90;;;;;;5047872;28;20213;-71
2021/08/04 00:55:55;;;;;;;1.33;1.30;;;16.90;99.90;;;;;;5048380;28;20259;-71
2021/08/04 00:58:24;;;;;;;1.40;1.30;;;16.90;99.90;;;;;;5050169;28;20203;-70
2021/08/04 01:01:00;;;;;;;1.67;1.47;;;16.90;99.90;;;;;;5036306;28;20237;-70
2021/08/04 01:03:37;;;;;;;1.53;1.43;;;16.90;99.90;;;;;;5049038;28;20599;-70
2021/08/04 01:06:09;;;;;;;1.10;1.10;;;16.90;99.90;;;;;;5036532;28;20215;-70
2021/08/04 01:08:41;;;;;;;1.10;1.10;;;16.90;99.90;;;;;;5047051;28;20792;-71
2021/08/04 01:11:11;;;;;;;1.13;1.13;;;16.80;99.90;;;;;;5048697;28;20593;-70
2021/08/04 01:13:42;;;;;;;1.13;1.10;;;16.80;99.90;;;;;;5049001;28;20302;-71
2021/08/04 01:16:12;;;;;;;0.93;0.93;;;16.80;99.90;;;;;;5045412;28;20206;-71
2021/08/04 01:18:47;;;;;;;1.17;1.07;;;16.80;99.90;;;;;;5032433;28;20647;-71
2021/08/04 01:21:19;;;;;;;2.07;1.17;;;16.80;99.90;;;;;;5048876;28;20248;-70
2021/08/04 01:23:54;;;;;;;1.13;1.07;;;16.80;99.90;;;;;;5047183;28;20360;-71
2021/08/04 01:26:29;;;;;;;1.23;1.10;;;16.70;99.90;;;;;;5047846;28;20297;-72
2021/08/04 01:28:59;;;;;;;1.60;1.40;;;16.70;99.90;;;;;;5048803;28;20212;-71
2021/08/04 01:31:28;;;;;;;1.40;1.30;;;16.70;99.90;;;;;;5048988;28;20212;-71
2021/08/04 01:33:56;;;;;;;1.33;1.23;;;16.70;99.90;;;;;;5049444;28;20188;-71
2021/08/04 01:36:24;;;;;;;1.30;1.20;;;16.70;99.90;;;;;;5048521;28;20237;-71
2021/08/04 01:38:52;;;;;;;1.10;1.10;;;16.70;99.90;;;;;;5046483;28;20221;-71
2021/08/04 01:41:20;;;;;;;1.20;1.10;;;16.70;99.90;;;;;;5048214;28;20224;-71
2021/08/04 01:43:51;;;;;;;1.07;1.07;;;16.70;99.90;;;;;;5048558;28;20306;-71
2021/08/04 01:46:20;;;;;;;1.20;1.20;;;16.70;99.90;;;;;;5049174;28;20598;-71
2021/08/04 01:48:49;;;;;;;1.00;1.00;;;16.70;99.90;;;;;;5048138;28;20198;-71
2021/08/04 01:51:17;;;;;;;1.23;1.20;;;16.70;99.90;;;;;;5048251;28;20737;-71
2021/08/04 01:53:47;;;;;;;2.13;1.13;;;16.60;99.90;;;;;;5046676;28;20256;-71
2021/08/04 01:56:16;;;;;;;1.73;1.60;;;16.60;99.90;;;;;;5046658;28;20292;-71
2021/08/04 01:58:45;;;;;;;1.10;1.10;;;16.50;99.90;;;;;;5048372;28;20919;-71
2021/08/04 02:01:13;;;;;;;1.53;1.40;;;16.60;99.90;;;;;;5036392;28;20277;-71
2021/08/04 02:03:40;;;;;;;1.70;1.60;;;16.60;99.90;;;;;;5049500;28;20197;-71
2021/08/04 02:06:12;;;;;;;1.43;1.33;;;16.60;99.90;;;;;;5047859;28;20202;-72
2021/08/04 02:08:43;;;;;;;1.43;1.30;;;16.50;99.90;;;;;;5046177;28;20198;-71
2021/08/04 02:11:16;;;;;;;1.40;1.30;;;16.60;99.90;;;;;;5048817;28;20200;-71
2021/08/04 02:13:48;;;;;;;1.40;1.30;;;16.60;99.90;;;;;;5048040;28;20220;-71
2021/08/04 02:16:25;;;;;;;1.07;1.03;;;16.60;99.90;;;;;;5047772;28;20711;-72
2021/08/04 02:19:02;;;;;;;1.40;1.30;;;16.60;99.90;;;;;;5047469;28;20209;-71
2021/08/04 02:21:32;;;;;;;1.47;1.37;;;16.60;99.90;;;;;;5048035;28;20238;-71
2021/08/04 02:24:00;;;;;;;1.30;1.20;;;16.60;99.90;;;;;;5047188;28;20198;-71
2021/08/04 02:26:29;;;;;;;1.50;1.40;;;16.60;99.90;;;;;;5047307;28;20233;-71
2021/08/04 02:28:58;;;;;;;1.77;1.37;;;16.60;99.90;;;;;;5045086;28;20208;-71
2021/08/04 02:31:27;;;;;;;2.40;1.60;;;16.50;99.90;;;;;;5052759;28;20285;-72
2021/08/04 02:33:54;;;;;;;1.50;1.40;;;16.50;99.90;;;;;;5049058;28;20649;-72
2021/08/04 02:36:21;;;;;;;1.90;1.43;;;16.50;99.90;;;;;;5064516;28;20247;-72
2021/08/04 02:38:49;;;;;;;2.00;1.60;;;16.50;99.90;;;;;;5045505;28;20205;-72
2021/08/04 02:41:16;;;;;;;1.63;1.37;;;16.50;99.90;;;;;;5046936;28;20222;-71
2021/08/04 02:43:43;;;;;;;1.73;1.63;;;16.40;99.90;;;;;;5047383;28;20236;-72
2021/08/04 02:46:11;;;;;;;1.80;1.70;;;16.40;99.90;;;;;;5046841;28;20210;-72
2021/08/04 02:48:40;;;;;;;1.80;1.60;;;16.40;99.90;;;;;;5048222;28;20201;-71
2021/08/04 02:51:11;;;;;;;1.40;1.30;;;16.40;99.90;;;;;;5047575;28;20263;-72
2021/08/04 02:53:39;;;;;;;1.77;1.50;;;16.30;99.90;;;;;;5047472;28;20216;-72
2021/08/04 02:56:06;;;;;;;1.40;1.30;;;16.30;99.90;;;;;;5046899;28;20198;-71
2021/08/04 02:58:37;;;;;;;1.80;1.70;;;16.30;99.90;;;;;;5044779;28;20208;-71
2021/08/04 03:01:06;;;;;;;1.40;1.30;;;16.30;99.90;;;;;;5047127;28;20225;-71
2021/08/04 03:03:33;;;;;;;1.60;1.50;;;16.30;99.90;;;;;;5050251;28;20201;-71
2021/08/04 03:06:02;;;;;;;1.40;1.30;;;16.30;99.90;;;;;;5047151;28;20304;-71
2021/08/04 03:08:29;;;;;;;1.97;1.77;;;16.20;99.90;;;;;;5044621;28;20225;-72
2021/08/04 03:10:56;;;;;;;1.70;1.60;;;16.20;99.90;;;;;;5047021;28;20624;-72
2021/08/04 03:13:23;;;;;;;1.90;1.77;;;16.20;99.90;;;;;;5046966;28;20210;-72
2021/08/04 03:15:51;;;;;;;1.50;1.40;;;16.20;99.90;;;;;;5048634;28;20609;-71
2021/08/04 03:18:18;;;;;;;1.50;1.40;;;16.20;99.90;;;;;;5051293;28;20201;-71
2021/08/04 03:20:44;;;;;;;1.80;1.70;;;16.10;99.90;;;;;;5047233;28;20253;-72
2021/08/04 03:23:13;;;;;;;1.50;1.40;;;16.10;99.90;;;;;;5046596;28;20252;-72
2021/08/04 03:25:40;;;;;;;1.73;1.63;;;16.10;99.90;;;;;;5047812;28;20201;-71
2021/08/04 03:28:06;;;;;;;1.50;1.40;;;16.10;99.90;;;;;;5048182;28;20202;-72
2021/08/04 03:30:33;;;;;;;1.40;1.30;;;16.10;99.90;;;;;;5058047;28;20240;-72
2021/08/04 03:33:00;;;;;;;1.93;1.43;;;16.10;99.90;;;;;;5048152;28;20189;-71
2021/08/04 03:35:27;;;;;;;1.30;1.20;;;16.10;99.90;;;;;;5048549;28;20206;-71
2021/08/04 03:37:54;;;;;;;1.40;1.30;;;16.20;99.90;;;;;;5044724;28;20783;-71
2021/08/04 03:40:22;;;;;;;1.30;1.20;;;16.10;99.90;;;;;;5047936;28;20558;-72
2021/08/04 03:42:49;;;;;;;1.43;1.33;;;16.20;99.90;;;;;;5063105;28;20198;-71
2021/08/04 03:45:16;;;;;;;1.47;1.37;;;16.20;99.90;;;;;;5048607;28;20218;-71
2021/08/04 03:47:43;;;;;;;1.43;1.33;;;16.20;99.90;;;;;;5047109;28;20616;-72
2021/08/04 03:50:11;;;;;;;1.60;1.50;;;16.20;99.90;;;;;;5048030;28;20570;-71
2021/08/04 03:52:40;;;;;;;1.80;1.70;;;16.20;99.90;;;;;;5046379;28;20580;-72
2021/08/04 03:55:08;;;;;;;1.60;1.50;;;16.20;99.90;;;;;;5035608;28;20194;-72
2021/08/04 03:57:36;;;;;;;1.60;1.50;;;16.20;99.90;;;;;;5043533;28;20539;-72
2021/08/04 04:00:04;;;;;;;1.83;1.53;;;16.20;99.90;;;;;;5036285;28;20297;-72
2021/08/04 04:02:39;;;;;;;1.23;1.13;;;16.20;99.90;;;;;;5047040;28;20696;-71
2021/08/04 04:05:07;;;;;;;1.73;1.33;;;16.30;99.90;;;;;;5048469;28;20614;-72
2021/08/04 04:07:34;;;;;;;1.30;1.20;;;16.30;99.90;;;;;;5045584;28;20221;-72
2021/08/04 04:10:01;;;;;;;1.33;1.23;;;16.30;99.90;;;;;;5051213;28;20248;-71
2021/08/04 04:12:28;;;;;;;1.70;1.60;;;16.30;99.90;;;;;;5038385;28;20194;-72
2021/08/04 04:14:57;;;;;;;1.40;1.30;;;16.40;99.90;;;;;;5051930;28;20241;-72
2021/08/04 04:17:24;;;;;;;1.60;1.50;;;16.40;99.90;;;;;;5050955;28;20255;-71
2021/08/04 04:19:51;;;;;;;1.60;1.50;;;16.50;99.90;;;;;;5050717;28;20245;-71
2021/08/04 04:22:18;;;;;;;1.50;1.40;;;16.50;99.90;;;;;;5051165;28;20213;-72
2021/08/04 04:24:45;;;;;;;1.50;1.40;;;16.60;99.90;;;;;;5049942;28;20561;-71
2021/08/04 04:27:11;;;;;;;1.50;1.40;;;16.60;99.90;;;;;;5051216;28;20730;-71
2021/08/04 04:29:39;;;;;;;1.37;1.27;;;16.70;99.90;;;;;;5050283;28;20206;-71
2021/08/04 04:32:09;;;;;;;1.47;1.37;;;16.80;99.90;;;;;;5051176;28;20186;-71
2021/08/04 04:34:36;;;;;;;1.40;1.30;;;16.80;99.90;;;;;;5051040;28;20203;-72
2021/08/04 04:37:03;;;;;;;1.53;1.40;;;16.90;99.90;;;;;;5050888;28;20280;-71
2021/08/04 04:39:30;;;;;;;1.47;1.37;;;16.90;99.90;;;;;;5048698;28;20755;-71
2021/08/04 04:41:57;;;;;;;1.47;1.37;;;17.00;99.90;;;;;;5051043;28;20611;-71
2021/08/04 04:44:24;;;;;;;2.10;1.50;;;17.00;99.90;;;;;;5049234;28;20238;-72
2021/08/04 04:46:50;;;;;;;1.53;1.43;;;17.20;99.90;;;;;;5051138;28;20197;-72
2021/08/04 04:49:19;;;;;;;1.90;1.70;;;17.20;99.90;;;;;;5048412;28;20220;-71
2021/08/04 04:51:46;;;;;;;1.50;1.40;;;17.30;99.90;;;;;;5049800;28;20206;-71
2021/08/04 04:54:12;;;;;;;1.57;1.47;;;17.30;99.90;;;;;;5048559;28;20314;-71
2021/08/04 04:56:39;;;;;;;1.70;1.60;;;17.40;99.90;;;;;;5050599;28;20202;-71
2021/08/04 04:59:06;;;;;;;1.77;1.40;;;17.50;99.90;;;;;;5045742;28;20226;-70
2021/08/04 05:01:33;;;;;;;1.53;1.43;;;17.60;99.90;;;;;;5039955;28;20222;-70
2021/08/04 05:04:00;;;;;;;2.03;1.83;;;17.60;99.90;;;;;;5050278;28;20664;-70
2021/08/04 05:06:30;;;;;;;2.10;1.70;;;17.70;99.90;;;;;;5049391;28;20239;-70
2021/08/04 05:08:57;;;;;;;2.23;1.50;;;17.80;99.90;;;;;;5047689;28;20203;-70
2021/08/04 05:11:24;;;;;;;1.93;1.63;;;17.90;99.90;;;;;;5050445;28;20192;-70
2021/08/04 05:13:50;;;;;;;1.80;1.70;;;18.10;99.90;;;;;;5050497;28;20195;-70
2021/08/04 05:16:17;;;;;;;1.58;1.48;;;18.10;99.90;;;;;;5050535;28;20204;-70
2021/08/04 05:18:44;;;;;;;1.90;1.80;;;18.30;99.90;;;;;;5029580;28;20213;-70
2021/08/04 05:21:11;;;;;;;1.33;1.23;;;18.40;99.90;;;;;;5042072;28;20252;-71
2021/08/04 05:23:39;;;;;;;1.63;1.53;;;18.50;99.90;;;;;;5047363;28;20201;-70
2021/08/04 05:26:06;;;;;;;1.50;1.40;;;18.70;99.90;;;;;;5049685;28;20205;-71
2021/08/04 05:28:33;;;;;;;1.70;1.60;;;18.80;99.90;;;;;;5055300;28;20196;-71
2021/08/04 05:31:00;;;;;;;1.77;1.67;;;19.00;99.90;;;;;;5072660;28;20263;-70
2021/08/04 05:33:27;;;;;;;1.55;1.45;;;19.10;99.90;;;;;;5050018;28;20767;-71
2021/08/04 05:35:54;;;;;;;1.50;1.40;;;19.20;99.90;;;;;;5050494;28;20213;-71
2021/08/04 05:38:21;;;;;;;1.83;1.58;;;19.30;99.90;;;;;;5046718;28;20304;-71
2021/08/04 05:40:49;;;;;;;1.95;1.75;;;19.40;99.90;;;;;;5049251;28;20293;-71
2021/08/04 05:43:16;;;;;;;1.75;1.65;;;19.60;99.90;;;;;;5049616;28;20198;-71
2021/08/04 05:45:43;;;;;;;1.88;1.77;;;19.70;99.90;;;;;;5049907;28;20202;-71
2021/08/04 05:48:10;;;;;;;1.48;1.38;;;19.90;99.90;;;;;;5049368;28;20201;-71
2021/08/04 05:50:37;;;;;;;2.20;1.60;;;20.00;99.90;;;;;;5049407;28;20193;-72
2021/08/04 05:53:04;;;;;;;1.70;1.60;;;20.20;99.90;;;;;;5048157;28;20339;-72
2021/08/04 05:55:31;;;;;;;1.70;1.60;;;20.20;99.90;;;;;;5048690;28;20198;-72
2021/08/04 05:57:59;;;;;;;2.05;1.63;;;20.20;99.90;;;;;;5047593;28;20206;-72
2021/08/04 06:00:26;;;;;;;2.97;1.98;;;20.30;99.90;;;;;;5045640;28;20217;-71
2021/08/04 06:02:53;;;;;;;1.67;1.58;;;20.40;99.90;;;;;;5049453;28;20993;-71
2021/08/04 06:05:20;;;;;;;1.80;1.70;;;20.50;99.90;;;;;;5049619;28;20266;-72
2021/08/04 06:07:46;;;;;;;2.75;1.83;;;20.50;99.90;;;;;;5047433;28;20198;-71
2021/08/04 06:10:13;;;;;;;2.33;2.00;;;20.60;99.90;;;;;;5046900;28;21062;-71
2021/08/04 06:12:40;;;;;;;1.77;1.67;;;20.70;99.90;;;;;;5047770;28;20224;-71
2021/08/04 06:15:10;;;;;;;1.50;1.40;;;20.90;99.90;;;;;;5049322;28;20233;-71
2021/08/04 06:17:36;;;;;;;2.70;1.95;;;21.00;99.90;;;;;;5047312;28;20280;-71
2021/08/04 06:20:04;;;;;;;1.52;1.40;;;21.30;99.90;;;;;;5041840;28;20789;-72
2021/08/04 06:22:31;;;;;;;1.90;1.60;;;21.80;99.90;;;;;;5042721;28;20209;-71
2021/08/04 06:24:58;;;;;;;3.38;1.92;;;22.30;99.90;;;;;;5042767;28;20607;-70
2021/08/04 06:27:25;;;;;;;1.73;1.63;;;22.40;99.90;;;;;;5042977;28;20238;-71
2021/08/04 06:29:52;;;;;;;1.88;1.52;;;22.70;99.90;;;;;;5037136;28;20193;-71
2021/08/04 06:32:20;;;;;;;1.45;1.30;;;23.30;99.90;;;;;;5044247;28;20200;-71
2021/08/04 06:34:47;;;;;;;1.60;1.50;;;24.00;99.90;;;;;;5043149;28;20189;-71
2021/08/04 06:37:14;;;;;;;1.50;1.40;;;24.00;99.90;;;;;;5042381;28;20197;-71
2021/08/04 06:39:41;;;;;;;1.73;1.52;;;23.80;99.90;;;;;;5040689;28;20546;-71
2021/08/04 06:42:08;;;;;;;2.78;1.90;;;24.20;99.90;;;;;;5039538;28;20705;-70
2021/08/04 06:44:35;;;;;;;2.65;2.22;;;25.30;99.90;;;;;;5042160;28;20658;-71
2021/08/04 06:47:02;;;;;;;2.10;1.90;;;27.30;99.10;;;;;;5044063;28;20198;-71
2021/08/04 06:49:30;;;;;;;2.28;1.95;;;30.20;94.70;;;;;;5043254;28;20205;-72
2021/08/04 06:51:57;;;;;;;2.35;2.15;;;33.10;86.30;;;;;;5041605;28;20194;-72
2021/08/04 06:54:25;;;;;;;1.80;1.70;;;35.60;71.50;;;;;;5043859;28;20715;-72
2021/08/04 06:56:52;;;;;;;3.38;2.42;;;37.70;62.70;;;;;;5044933;28;20716;-73
2021/08/04 06:59:19;;;;;;;3.83;2.20;;;39.50;55.40;;;;;;5040042;28;20204;-73
2021/08/04 07:01:46;;;;;;;2.33;2.13;;;41.00;49.50;;;;;;5044243;28;20297;-72
2021/08/04 07:04:15;;;;;;;2.00;1.90;;;42.40;44.20;;;;;;5058140;28;21003;-72
2021/08/04 07:06:53;;;;;;;2.35;2.15;;;42.70;41.70;;;;;;5042201;28;20280;-72
2021/08/04 07:09:20;;;;;;;2.00;1.90;;;41.20;41.10;;;;;;5040026;28;20225;-72
2021/08/04 07:11:47;;;;;;;2.00;1.90;;;40.00;41.60;;;;;;5043093;28;20268;-72
2021/08/04 07:14:15;;;;;;;3.50;2.50;;;39.10;41.40;;;;;;5044476;28;20198;-72
2021/08/04 07:16:42;;;;;;;4.55;2.60;;;39.30;39.80;;;;;;5044334;28;20208;-72
2021/08/04 07:19:10;;;;;;;2.88;2.53;;;40.80;38.80;;;;;;5038289;28;20197;-72
2021/08/04 07:21:37;;;;;;;2.95;2.30;;;42.50;36.30;;;;;;5041939;28;20321;-71
2021/08/04 07:24:06;;;;;;;5.80;2.60;;;43.50;35.20;;;;;;5038521;28;20259;-72
2021/08/04 07:26:33;;;;;;;2.65;2.20;;;44.30;33.10;;;;;;5040411;28;20772;-71
2021/08/04 07:29:00;;;;;;;2.42;2.22;;;44.50;32.10;;;;;;5043588;28;20235;-72
2021/08/04 07:31:27;;;;;;;2.10;2.00;;;44.70;32.50;;;;;;5040987;28;20197;-71
2021/08/04 07:33:54;;;;;;;2.28;2.10;;;45.00;31.70;;;;;;5036484;28;20248;-71
2021/08/04 07:36:21;;;;;;;2.53;2.20;;;45.40;30.70;;;;;;5043000;28;20185;-71
2021/08/04 07:38:47;;;;;;;2.00;1.90;;;45.10;29.40;;;;;;5039605;28;20208;-71
2021/08/04 07:41:16;;;;;;;2.60;2.40;;;44.70;29.80;;;;;;5041808;28;20221;-69
2021/08/04 07:43:43;;;;;;;3.17;2.30;;;44.90;29.70;;;;;;5046074;28;20228;-70
2021/08/04 07:46:10;;;;;;;2.42;2.20;;;44.40;29.40;;;;;;5048890;28;20204;-70
2021/08/04 07:48:37;;;;;;;3.20;2.05;;;43.30;30.20;;;;;;5046633;28;20569;-70
2021/08/04 07:51:04;;;;;;;2.10;2.00;;;42.30;31.10;;;;;;5046326;28;20201;-69
2021/08/04 07:53:31;;;;;;;2.35;2.25;;;41.40;32.10;;;;;;5047368;28;20193;-69
2021/08/04 07:55:58;;;;;;;2.45;2.25;;;40.70;32.90;;;;;;5044579;28;20201;-69
2021/08/04 07:58:26;;;;;;;1.98;1.88;;;40.40;33.00;;;;;;5043657;28;20201;-69
2021/08/04 08:00:53;;;;;;;2.00;2.00;;;40.70;32.80;;;;;;5048292;28;20197;-70
2021/08/04 08:03:20;;;;;;;1.98;1.92;;;41.30;32.40;;;;;;5046524;28;20262;-70
2021/08/04 08:05:47;;;;;;;2.00;1.90;;;42.20;31.80;;;;;;5048914;28;20201;-71
2021/08/04 08:08:15;;;;;;;1.70;1.70;;;43.00;30.60;;;;;;5045621;28;20205;-70
2021/08/04 08:10:43;;;;;;;1.77;1.70;;;43.90;30.00;;;;;;5046250;28;20297;-70
2021/08/04 08:13:11;;;;;;;1.75;1.75;;;44.80;29.70;;;;;;5047304;28;20197;-70
2021/08/04 08:15:39;;;;;;;1.83;1.83;;;45.50;29.10;;;;;;5047314;28;20282;-68
2021/08/04 08:18:07;;;;;;;2.15;2.05;;;45.80;28.80;;;;;;5047334;28;20205;-69
2021/08/04 08:20:35;;;;;;;1.90;1.90;;;46.20;28.00;;;;;;5042502;28;20254;-70
2021/08/04 08:23:02;;;;;;;2.45;2.35;;;46.00;27.40;;;;;;5044131;28;20247;-69
2021/08/04 08:25:29;;;;;;;2.10;2.00;;;45.20;27.40;;;;;;5045196;28;20215;-69
2021/08/04 08:27:56;;;;;;;2.22;2.13;;;45.20;26.80;;;;;;5043791;28;20908;-69
2021/08/04 08:30:23;;;;;;;2.70;2.08;;;45.10;27.00;;;;;;5046450;28;20193;-70
2021/08/04 08:32:52;;;;;;;1.90;1.83;;;45.70;27.00;;;;;;5046750;28;20259;-70
2021/08/04 08:35:19;;;;;;;2.08;2.00;;;46.00;26.90;;;;;;5043527;28;20209;-69
2021/08/04 08:37:47;;;;;;;3.00;2.40;;;46.40;26.60;;;;;;5046182;28;20675;-70
2021/08/04 08:40:16;;;;;;;3.78;2.35;;;46.20;26.40;;;;;;5045305;28;20251;-70
2021/08/04 08:42:44;;;;;;;2.50;2.30;;;45.40;26.10;;;;;;5046886;28;20217;-70
2021/08/04 08:45:12;;;;;;;2.40;2.20;;;45.50;26.20;;;;;;5046161;28;20205;-69
2021/08/04 08:47:40;;;;;;;2.47;2.10;;;45.60;26.10;;;;;;5061888;28;20224;-70
2021/08/04 08:50:10;;;;;;;2.78;2.58;;;44.90;26.80;;;;;;5046388;28;20404;-70
2021/08/04 08:52:37;;;;;;;2.35;2.25;;;44.60;26.10;;;;;;5043567;28;20190;-70
2021/08/04 08:55:06;;;;;;;5.40;2.50;;;43.70;26.40;;;;;;5044885;28;20611;-68
2021/08/04 08:57:33;;;;;;;2.20;2.00;;;42.30;26.50;;;;;;5045816;28;20346;-68
2021/08/04 09:00:00;;;;;;;2.20;2.03;;;41.10;27.30;;;;;;5043975;28;20292;-70
2021/08/04 09:02:27;;;;;;;2.10;2.00;;;40.20;27.70;;;;;;5046339;28;20443;-69
2021/08/04 09:05:01;;;;;;;1.88;1.77;;;39.90;28.30;;;;;;5047208;28;20248;-69
2021/08/04 09:07:35;;;;;;;2.45;2.00;;;39.90;28.40;;;;;;5042963;28;20254;-69
2021/08/04 09:10:02;;;;;;;2.60;2.17;;;40.10;28.40;;;;;;5045728;28;20197;-70
2021/08/04 09:12:29;;;;;;;2.20;2.00;;;40.30;27.90;;;;;;5043000;28;20181;-68
2021/08/04 09:14:56;;;;;;;3.30;2.13;;;39.90;28.10;;;;;;5047168;28;20225;-69
2021/08/04 09:17:23;;;;;;;1.92;1.83;;;39.90;28.20;;;;;;5042944;28;20220;-69
2021/08/04 09:19:52;;;;;;;2.10;2.00;;;41.00;28.10;;;;;;5041987;28;20240;-69
2021/08/04 09:22:22;;;;;;;5.07;2.50;;;42.50;27.00;;;;;;5059741;28;20206;-70
2021/08/04 09:25:00;;;;;;;3.67;1.90;;;43.70;26.10;;;;;;5044240;28;20200;-70
2021/08/04 09:27:55;;;;;;;2.65;2.28;;;44.20;25.50;;;;;;5038884;28;20193;-70
2021/08/04 09:30:26;;;;;;;2.30;2.20;;;44.20;25.20;;;;;;5044435;28;20717;-69
2021/08/04 09:32:53;;;;;;;1.98;1.88;;;44.30;25.00;;;;;;5045026;28;20676;-69
2021/08/04 09:35:23;;;;;;;2.03;1.92;;;44.70;24.80;;;;;;5046781;28;20201;-69
2021/08/04 09:37:50;;;;;;;2.53;2.15;;;45.00;24.60;;;;;;5044971;28;20633;-69
2021/08/04 09:40:21;;;;;;;2.20;2.00;;;45.30;24.40;;;;;;5045873;28;20259;-69
2021/08/04 09:42:52;;;;;;;2.88;2.28;;;45.60;24.30;;;;;;5044523;28;20221;-69
2021/08/04 09:45:23;;;;;;;2.67;2.22;;;45.60;24.00;;;;;;5045762;28;20616;-69
2021/08/04 09:48:00;;;;;;;4.85;2.10;;;45.80;24.10;;;;;;5046034;28;20288;-70
2021/08/04 09:50:27;;;;;;;2.45;2.25;;;46.50;23.80;;;;;;5038829;28;20232;-70
2021/08/04 09:52:55;;;;;;;3.50;1.95;;;46.80;23.40;;;;;;5042090;28;20202;-70
2021/08/04 09:55:24;;;;;;;2.45;2.22;;;47.00;23.30;;;;;;5044147;28;20194;-70
2021/08/04 09:57:55;;;;;;;2.60;2.40;;;47.10;23.30;;;;;;5044773;28;20228;-70
2021/08/04 10:00:23;;;;;;;2.40;2.30;;;47.60;23.20;;;;;;5043765;28;20683;-70
2021/08/04 10:02:50;;;;;;;4.47;2.30;;;48.00;22.80;;;;;;5044753;28;20259;-70
2021/08/04 10:05:22;;;;;;;2.67;2.47;;;48.40;22.40;;;;;;5044057;28;20292;-68
2021/08/04 10:08:16;;;;;;;2.50;2.40;;;48.50;22.40;;;;;;5041245;28;20202;-68
2021/08/04 10:10:46;;;;;;;2.10;2.00;;;48.90;22.40;;;;;;4983048;28;20825;-68
2021/08/04 10:13:17;;;;;;;2.45;2.25;;;48.70;22.20;;;;;;4977967;28;20451;-78
2021/08/04 10:15:46;;;;;;;4.80;2.10;;;47.50;22.30;;;;;;4981212;28;20210;-77
2021/08/04 10:18:17;;;;;;;2.83;2.05;;;46.90;22.60;;;;;;4971928;28;20502;-78
2021/08/04 10:20:45;;;;;;;2.30;2.20;;;46.40;22.80;;;;;;4986447;28;20230;-78
2021/08/04 10:23:16;;;;;;;2.10;2.00;;;46.00;23.30;;;;;;4975259;28;20224;-79
2021/08/04 10:25:45;;;;;;;2.10;2.00;;;46.50;23.30;;;;;;4976736;28;20211;-79
2021/08/04 10:28:12;;;;;;;3.88;2.63;;;46.20;23.20;;;;;;4970644;28;20206;-78
2021/08/04 10:30:42;;;;;;;7.45;2.53;;;46.80;22.90;;;;;;4992672;28;20199;-79
2021/08/04 10:33:09;;;;;;;2.38;2.28;;;47.70;22.80;;;;;;4968355;28;20199;-79
2021/08/04 10:35:38;;;;;;;2.58;2.30;;;48.30;22.30;;;;;;4985650;28;20206;-79
2021/08/04 10:38:08;;;;;;;2.40;2.20;;;48.70;22.20;;;;;;4968824;28;20288;-79
2021/08/04 10:40:35;;;;;;;4.30;2.30;;;49.20;22.10;;;;;;4980559;28;20246;-79
2021/08/04 10:43:04;;;;;;;2.58;2.47;;;49.80;21.50;;;;;;4986800;28;20246;-78
2021/08/04 10:45:36;;;;;;;2.10;1.98;;;49.80;21.30;;;;;;4985833;28;20219;-78
2021/08/04 10:48:23;;;;;;;2.28;2.17;;;48.90;21.60;;;;;;5048804;28;20194;-79
2021/08/04 10:51:17;;;;;;;3.20;3.00;;;47.60;22.20;;;;;;5048662;28;20220;-78
2021/08/04 10:54:13;;;;;;;2.88;2.60;;;46.20;22.50;;;;;;5045310;28;20514;-78
2021/08/04 10:57:08;;;;;;;2.17;2.05;;;43.90;23.60;;;;;;5049168;28;20766;-78
2021/08/04 10:59:41;;;;;;;3.45;2.20;;;41.90;24.80;;;;;;5042516;28;20663;-78
2021/08/04 11:02:31;;;;;;;3.58;2.10;;;41.00;25.60;;;;;;5046509;28;20209;-78
2021/08/04 11:04:59;;;;;;;2.10;2.00;;;42.10;25.60;;;;;;5048318;28;20225;-78
2021/08/04 11:07:27;;;;;;;2.30;2.20;;;42.10;25.10;;;;;;5047559;28;20225;-78
2021/08/04 11:10:15;;;;;;;3.35;1.88;;;41.00;25.70;;;;;;5047376;28;20197;-79
2021/08/04 11:12:47;;;;;;;1.60;1.60;;;39.80;26.40;;;;;;5035533;28;20289;-78
2021/08/04 11:15:39;;;;;;;2.30;2.20;;;38.90;27.00;;;;;;5063758;28;20211;-78
2021/08/04 11:18:15;;;;;;;2.33;2.15;;;37.90;27.70;;;;;;4987267;28;20246;-79
2021/08/04 11:21:10;;;;;;;2.47;2.30;;;37.20;28.40;;;;;;4990162;28;20259;-79
2021/08/04 11:23:46;;;;;;;1.67;1.58;;;37.50;28.60;;;;;;4988416;28;20231;-78
2021/08/04 11:26:31;;;;;;;2.75;1.70;;;37.20;28.60;;;;;;4990407;28;20211;-78
2021/08/04 11:28:59;;;;;;;2.00;1.58;;;36.40;29.20;;;;;;4999356;28;20222;-78
2021/08/04 11:31:28;;;;;;;1.80;1.70;;;35.70;30.00;;;;;;4993251;28;20203;-78
2021/08/04 11:34:00;;;;;;;1.70;1.60;;;34.90;30.90;;;;;;4964629;28;20203;-77
2021/08/04 11:36:29;;;;;;;1.70;1.60;;;34.10;31.80;;;;;;4985966;28;20239;-77
2021/08/04 11:39:02;;;;;;;1.67;1.58;;;33.30;32.60;;;;;;4983429;28;20652;-79
2021/08/04 11:41:36;;;;;;;1.35;1.35;;;32.80;33.60;;;;;;4970371;28;20294;-79
2021/08/04 11:44:23;;;;;;;2.70;1.63;;;32.50;34.50;;;;;;4983381;28;20227;-79
2021/08/04 11:46:54;;;;;;;1.83;1.70;;;32.70;35.00;;;;;;4966379;28;20216;-79
2021/08/04 11:49:25;;;;;;;1.90;1.80;;;33.50;34.40;;;;;;4985152;28;20239;-77
2021/08/04 11:51:54;;;;;;;1.50;1.40;;;35.50;32.50;;;;;;4984998;28;20334;-78
2021/08/04 11:54:30;;;;;;;2.95;1.70;;;37.40;30.70;;;;;;4991069;28;20194;-80
2021/08/04 11:56:58;;;;;;;2.30;1.70;;;38.80;29.40;;;;;;5044085;28;20220;-77
2021/08/04 11:59:25;;;;;;;1.80;1.70;;;39.30;28.70;;;;;;5041993;28;20205;-78
2021/08/04 12:02:01;;;;;;;3.10;2.08;;;39.20;28.30;;;;;;5047642;28;20663;-78
2021/08/04 12:04:30;;;;;;;2.17;1.60;;;38.30;28.60;;;;;;5059479;28;20294;-79
2021/08/04 12:07:05;;;;;;;2.03;1.92;;;38.10;29.00;;;;;;5062578;28;20292;-78
2021/08/04 12:09:34;;;;;;;1.80;1.70;;;38.30;28.90;;;;;;5061890;28;20227;-77
2021/08/04 12:12:02;;;;;;;4.03;2.03;;;38.60;28.70;;;;;;5046747;28;20209;-78
2021/08/04 12:14:32;;;;;;;1.70;1.60;;;38.90;28.00;;;;;;5045493;28;20232;-78
2021/08/04 12:17:03;;;;;;;2.00;1.90;;;39.10;27.70;;;;;;5045661;28;20426;-77
2021/08/04 12:19:36;;;;;;;1.98;1.77;;;39.00;27.60;;;;;;5047556;28;20225;-78
2021/08/04 12:22:06;;;;;;;1.75;1.65;;;39.00;27.80;;;;;;5036344;28;20209;-78
2021/08/04 12:24:40;;;;;;;3.10;1.90;;;38.90;27.50;;;;;;5044132;28;20903;-78
2021/08/04 12:27:07;;;;;;;5.25;2.00;;;38.60;27.90;;;;;;5047345;28;20259;-78
2021/08/04 12:29:35;;;;;;;5.65;1.70;;;37.60;28.60;;;;;;5048526;28;20197;-78
2021/08/04 12:32:17;;;;;;;1.65;1.55;;;36.60;29.30;;;;;;5054939;28;20213;-77
2021/08/04 12:34:56;;;;;;;3.08;2.05;;;35.60;30.00;;;;;;5045065;28;20697;-77
2021/08/04 12:37:23;;;;;;;1.60;1.50;;;34.50;31.60;;;;;;5046394;28;20201;-77
2021/08/04 12:39:52;;;;;;;3.53;1.38;;;33.60;32.80;;;;;;5045943;28;20198;-79
2021/08/04 12:42:19;;;;;;;2.78;1.58;;;32.80;33.70;;;;;;5048609;28;20285;-76
2021/08/04 12:44:47;;;;;;;1.80;1.70;;;32.20;34.90;;;;;;5045616;28;20692;-76
2021/08/04 12:47:16;;;;;;;2.22;1.75;;;31.50;36.10;;;;;;5046339;28;20202;-77
2021/08/04 12:49:45;;;;;;;1.80;1.70;;;31.00;37.10;;;;;;5047079;28;20225;-77
2021/08/04 12:52:15;;;;;;;1.65;1.55;;;30.50;37.90;;;;;;5045473;28;20774;-77
2021/08/04 12:54:41;;;;;;;1.90;1.70;;;29.90;38.80;;;;;;5044590;28;20186;-76
2021/08/04 12:57:24;;;;;;;1.77;1.67;;;29.50;39.60;;;;;;5043910;28;20697;-77
2021/08/04 12:59:51;;;;;;;3.83;1.70;;;29.20;40.00;;;;;;5045052;28;20232;-77